createdAt,value
2019-05-26T00:00:15.081Z,7.03
2019-05-26T00:02:42.769Z,7.65
2019-05-26T00:05:10.435Z,7.85
2019-05-26T00:07:38.107Z,8.55
2019-05-26T00:10:05.916Z,8.95
2019-05-26T00:12:33.395Z,7.80
2019-05-26T00:15:00.826Z,8.40
2019-05-26T00:17:28.250Z,8.48
2019-05-26T00:19:55.687Z,8.95
2019-05-26T00:22:23.111Z,8.65
2019-05-26T00:24:50.794Z,8.70
2019-05-26T00:27:18.475Z,8.88
2019-05-26T00:29:46.145Z,8.75
2019-05-26T00:32:13.811Z,8.58
2019-05-26T00:34:41.486Z,8.33
2019-05-26T00:37:09.155Z,8.75
2019-05-26T00:39:36.835Z,8.00
2019-05-26T00:42:04.503Z,8.20
2019-05-26T00:44:32.174Z,8.53
2019-05-26T00:46:59.846Z,8.60
2019-05-26T00:49:27.527Z,9.05
2019-05-26T00:51:55.183Z,9.50
2019-05-26T00:54:22.859Z,8.75
2019-05-26T00:56:50.277Z,9.28
2019-05-26T00:59:17.703Z,8.73
2019-05-26T01:01:45.384Z,8.90
2019-05-26T01:04:13.078Z,9.03
2019-05-26T01:06:40.747Z,9.65
2019-05-26T01:09:08.174Z,9.30
2019-05-26T01:11:35.851Z,9.60
2019-05-26T01:14:03.538Z,10.08
2019-05-26T01:16:30.974Z,9.73
2019-05-26T01:18:58.403Z,9.55
2019-05-26T01:21:26.087Z,9.53
2019-05-26T01:23:53.508Z,9.20
2019-05-26T01:26:21.179Z,8.70
2019-05-26T01:28:48.635Z,8.98
2019-05-26T01:31:16.069Z,9.75
2019-05-26T01:33:43.732Z,9.88
2019-05-26T01:36:11.418Z,9.45
2019-05-26T01:38:38.851Z,9.45
2019-05-26T01:41:06.276Z,9.50
2019-05-26T01:43:33.946Z,9.70
2019-05-26T01:46:01.633Z,9.33
2019-05-26T01:48:29.088Z,9.33
2019-05-26T01:50:56.814Z,10.20
2019-05-26T01:53:24.218Z,9.55
2019-05-26T01:55:51.895Z,10.05
2019-05-26T01:58:19.574Z,9.90
2019-05-26T02:00:47.010Z,10.30
2019-05-26T02:03:14.433Z,9.45
2019-05-26T02:05:41.903Z,9.75
2019-05-26T02:08:12.039Z,10.03
2019-05-26T02:10:38.827Z,10.13
2019-05-26T02:13:06.872Z,9.20
2019-05-26T02:15:34.571Z,9.43
2019-05-26T02:18:02.277Z,10.53
2019-05-26T02:20:29.945Z,10.40
2019-05-26T02:22:57.376Z,9.83
2019-05-26T02:25:25.300Z,10.70
2019-05-26T02:27:52.994Z,10.58
2019-05-26T02:30:20.990Z,10.58
2019-05-26T02:32:48.913Z,10.50
2019-05-26T02:35:16.555Z,10.65
2019-05-26T02:37:44.471Z,11.20
2019-05-26T02:40:12.105Z,10.32
2019-05-26T02:42:39.606Z,10.70
2019-05-26T02:45:09.961Z,11.50
2019-05-26T02:47:37.917Z,10.78
2019-05-26T02:50:05.857Z,11.12
2019-05-26T02:52:33.569Z,10.28
2019-05-26T02:55:01.242Z,10.55
2019-05-26T02:57:28.674Z,10.80
2019-05-26T02:59:56.365Z,10.78
2019-05-26T03:02:24.034Z,10.98
2019-05-26T03:04:51.494Z,11.48
2019-05-26T03:07:19.543Z,11.65
2019-05-26T03:09:47.692Z,10.40
2019-05-26T03:12:15.262Z,11.70
2019-05-26T03:14:42.951Z,11.57
2019-05-26T03:17:10.380Z,11.28
2019-05-26T03:19:37.837Z,11.43
2019-05-26T03:22:05.500Z,11.73
2019-05-26T03:24:32.911Z,10.55
2019-05-26T03:27:00.603Z,9.95
2019-05-26T03:29:28.292Z,10.60
2019-05-26T03:31:55.766Z,10.95
2019-05-26T03:34:23.427Z,11.15
2019-05-26T03:36:50.893Z,10.43
2019-05-26T03:39:18.308Z,11.12
2019-05-26T03:41:45.978Z,10.82
2019-05-26T03:44:13.754Z,12.58
2019-05-26T03:46:41.134Z,11.57
2019-05-26T03:49:09.385Z,11.78
2019-05-26T03:51:36.837Z,12.05
2019-05-26T03:54:04.519Z,13.10
2019-05-26T03:56:32.222Z,11.80
2019-05-26T03:58:59.693Z,11.25
2019-05-26T04:01:27.638Z,10.85
2019-05-26T04:03:55.319Z,11.80
2019-05-26T04:06:22.745Z,12.00
2019-05-26T04:08:50.419Z,11.18
2019-05-26T04:11:18.092Z,12.68
2019-05-26T04:13:45.563Z,12.10
2019-05-26T04:16:13.045Z,12.30
2019-05-26T04:18:40.776Z,13.08
2019-05-26T04:21:08.516Z,12.80
2019-05-26T04:23:35.953Z,12.65
2019-05-26T04:26:03.617Z,12.45
2019-05-26T04:28:31.328Z,12.00
2019-05-26T04:30:59.039Z,12.43
2019-05-26T04:33:26.475Z,12.58
2019-05-26T04:35:53.937Z,12.73
2019-05-26T04:38:21.355Z,12.13
2019-05-26T04:40:48.783Z,12.47
2019-05-26T04:43:16.467Z,12.65
2019-05-26T04:45:43.916Z,12.53
2019-05-26T04:48:11.384Z,11.85
2019-05-26T04:50:38.839Z,12.53
2019-05-26T04:53:07.276Z,12.00
2019-05-26T04:55:35.169Z,12.03
2019-05-26T04:58:02.733Z,12.47
2019-05-26T05:00:30.443Z,12.37
2019-05-26T05:02:57.854Z,12.82
2019-05-26T05:05:25.333Z,12.23
2019-05-26T05:07:53.080Z,12.40
2019-05-26T05:10:20.522Z,12.45
2019-05-26T05:12:48.222Z,13.40
2019-05-26T05:15:16.375Z,13.20
2019-05-26T05:17:43.910Z,12.93
2019-05-26T05:20:11.585Z,12.47
2019-05-26T05:22:39.014Z,12.70
2019-05-26T05:25:13.873Z,14.00
2019-05-26T05:27:36.158Z,13.32
2019-05-26T05:30:05.283Z,13.88
2019-05-26T05:32:33.174Z,14.03
2019-05-26T05:35:00.936Z,13.50
2019-05-26T05:37:28.351Z,13.28
2019-05-26T05:39:56.060Z,12.40
2019-05-26T05:42:23.482Z,13.05
2019-05-26T05:44:50.909Z,13.65
2019-05-26T05:47:18.364Z,13.53
2019-05-26T05:49:45.794Z,13.88
2019-05-26T05:52:13.222Z,12.65
2019-05-26T05:54:40.893Z,13.43
2019-05-26T05:57:08.313Z,12.85
2019-05-26T05:59:35.737Z,13.40
2019-05-26T06:02:03.166Z,13.38
2019-05-26T06:04:30.891Z,12.98
2019-05-26T06:06:58.340Z,13.50
2019-05-26T06:09:26.014Z,13.00
2019-05-26T06:11:56.890Z,12.10
2019-05-26T06:14:22.887Z,12.25
2019-05-26T06:16:50.306Z,13.53
2019-05-26T06:19:17.985Z,12.20
2019-05-26T06:21:45.652Z,12.20
2019-05-26T06:24:13.105Z,11.35
2019-05-26T06:26:40.555Z,11.60
2019-05-26T06:29:07.985Z,11.80
2019-05-26T06:31:35.463Z,12.00
2019-05-26T06:34:03.162Z,11.93
2019-05-26T06:36:30.834Z,12.20
2019-05-26T06:38:58.566Z,12.23
2019-05-26T06:41:33.486Z,11.93
2019-05-26T06:43:55.206Z,11.28
2019-05-26T06:46:22.782Z,11.35
2019-05-26T06:48:50.694Z,11.40
2019-05-26T06:51:18.239Z,11.63
2019-05-26T06:53:45.682Z,11.95
2019-05-26T06:56:13.355Z,11.38
2019-05-26T06:58:41.615Z,12.60
2019-05-26T07:01:09.787Z,10.85
2019-05-26T07:03:37.280Z,11.22
2019-05-26T07:06:04.755Z,11.20
2019-05-26T07:08:32.562Z,11.57
2019-05-26T07:11:00.629Z,11.40
2019-05-26T07:13:28.240Z,11.18
2019-05-26T07:15:55.827Z,11.93
2019-05-26T07:18:24.194Z,10.90
2019-05-26T07:20:52.059Z,10.75
2019-05-26T07:23:19.842Z,11.53
2019-05-26T07:25:47.566Z,10.32
2019-05-26T07:28:15.377Z,10.82
2019-05-26T07:30:43.401Z,11.57
2019-05-26T07:33:11.176Z,12.82
2019-05-26T07:35:38.919Z,12.18
2019-05-26T07:38:06.529Z,11.50
2019-05-26T07:40:34.294Z,11.68
2019-05-26T07:43:01.743Z,11.25
2019-05-26T07:45:29.390Z,10.95
2019-05-26T07:47:57.114Z,9.95
2019-05-26T07:50:24.793Z,9.53
2019-05-26T07:52:52.460Z,9.60
2019-05-26T07:55:19.923Z,9.03
2019-05-26T07:57:47.594Z,10.55
2019-05-26T08:00:15.265Z,10.03
2019-05-26T08:02:42.715Z,9.25
2019-05-26T08:05:10.183Z,10.18
2019-05-26T08:07:37.594Z,10.30
2019-05-26T08:10:05.323Z,9.78
2019-05-26T08:12:37.987Z,9.03
2019-05-26T08:15:07.264Z,8.45
2019-05-26T08:17:34.726Z,9.55
2019-05-26T08:20:04.119Z,8.20
2019-05-26T08:22:31.543Z,7.55
2019-05-26T08:24:59.244Z,8.03
2019-05-26T08:27:26.703Z,8.25
2019-05-26T08:29:54.114Z,8.40
2019-05-26T08:32:21.590Z,8.25
2019-05-26T08:34:49.263Z,8.25
2019-05-26T08:37:16.725Z,7.08
2019-05-26T08:39:48.151Z,5.60
2019-05-26T08:42:26.307Z,6.83
2019-05-26T08:44:42.937Z,5.65
2019-05-26T08:47:11.192Z,8.10
2019-05-26T08:49:38.609Z,7.67
2019-05-26T08:52:06.046Z,7.10
2019-05-26T08:54:33.496Z,7.03
2019-05-26T08:57:00.961Z,7.50
2019-05-26T08:59:28.408Z,6.45
2019-05-26T09:01:55.839Z,6.20
2019-05-26T09:04:23.504Z,6.70
2019-05-26T09:06:50.936Z,6.90
2019-05-26T09:09:18.496Z,6.58
2019-05-26T09:11:45.998Z,6.50
2019-05-26T09:14:13.434Z,6.70
2019-05-26T09:16:41.178Z,5.72
2019-05-26T09:19:08.725Z,6.30
2019-05-26T09:21:36.518Z,6.08
2019-05-26T09:24:03.935Z,6.70
2019-05-26T09:26:31.415Z,5.62
2019-05-26T09:28:59.185Z,6.10
2019-05-26T09:31:26.872Z,6.85
2019-05-26T09:33:54.294Z,6.90
2019-05-26T09:36:21.958Z,6.15
2019-05-26T09:38:49.641Z,6.58
2019-05-26T09:41:17.323Z,6.60
2019-05-26T09:43:44.754Z,5.17
2019-05-26T09:46:12.243Z,6.17
2019-05-26T09:48:39.914Z,7.00
2019-05-26T09:51:07.343Z,6.47
2019-05-26T09:53:34.765Z,7.17
2019-05-26T09:56:02.471Z,6.28
2019-05-26T09:58:30.187Z,6.35
2019-05-26T10:00:57.839Z,5.42
2019-05-26T10:03:25.518Z,5.55
2019-05-26T10:05:52.967Z,6.05
2019-05-26T10:08:20.425Z,6.40
2019-05-26T10:10:47.854Z,5.25
2019-05-26T10:13:29.137Z,5.33
2019-05-26T10:15:44.678Z,4.72
2019-05-26T10:18:12.378Z,5.65
2019-05-26T10:20:39.840Z,4.90
2019-05-26T10:23:07.530Z,4.60
2019-05-26T10:25:37.251Z,5.08
2019-05-26T10:28:04.729Z,4.45
2019-05-26T10:30:32.159Z,4.75
2019-05-26T10:32:59.598Z,4.67
2019-05-26T10:35:27.060Z,4.70
2019-05-26T10:37:54.535Z,4.30
2019-05-26T10:40:22.101Z,4.25
2019-05-26T10:42:49.786Z,4.20
2019-05-26T10:45:17.300Z,4.20
2019-05-26T10:47:45.007Z,3.30
2019-05-26T10:50:12.532Z,4.30
2019-05-26T10:52:39.991Z,4.37
2019-05-26T10:57:57.119Z,3.00
2019-05-26T11:00:24.846Z,3.33
2019-05-26T11:02:52.274Z,3.87
2019-05-26T11:05:21.330Z,4.15
2019-05-26T11:07:48.790Z,4.60
2019-05-26T11:10:16.221Z,3.87
2019-05-26T11:12:43.888Z,3.95
2019-05-26T11:15:11.318Z,4.42
2019-05-26T11:17:38.983Z,4.08
2019-05-26T11:20:06.982Z,4.10
2019-05-26T11:22:34.461Z,4.62
2019-05-26T11:25:02.345Z,4.25
2019-05-26T11:27:29.761Z,4.15
2019-05-26T11:29:57.432Z,4.72
2019-05-26T11:32:25.122Z,4.50
2019-05-26T11:35:01.152Z,4.72
2019-05-26T11:37:22.319Z,4.72
2019-05-26T11:39:49.986Z,4.37
2019-05-26T11:42:17.435Z,3.60
2019-05-26T11:44:45.110Z,3.80
2019-05-26T11:47:12.607Z,3.58
2019-05-26T11:49:40.069Z,3.40
2019-05-26T11:52:07.554Z,4.37
2019-05-26T11:54:35.381Z,3.67
2019-05-26T11:57:03.034Z,4.62
2019-05-26T11:59:30.718Z,3.75
2019-05-26T12:01:58.175Z,4.17
2019-05-26T12:04:25.631Z,4.03
2019-05-26T12:06:53.051Z,4.33
2019-05-26T12:09:20.754Z,3.52
2019-05-26T12:11:48.414Z,3.67
2019-05-26T12:14:15.871Z,3.77
2019-05-26T12:16:43.592Z,3.25
2019-05-26T12:19:11.022Z,3.30
2019-05-26T12:21:38.682Z,3.40
2019-05-26T12:24:06.191Z,3.30
2019-05-26T12:26:33.851Z,3.02
2019-05-26T12:29:01.316Z,3.77
2019-05-26T12:31:28.768Z,3.83
2019-05-26T12:33:56.224Z,3.70
2019-05-26T12:36:23.647Z,3.22
2019-05-26T12:38:51.082Z,3.83
2019-05-26T12:41:20.800Z,3.37
2019-05-26T12:43:48.282Z,3.58
2019-05-26T12:46:15.784Z,4.45
2019-05-26T12:48:43.192Z,3.40
2019-05-26T12:51:10.924Z,2.90
2019-05-26T12:53:38.342Z,2.83
2019-05-26T12:56:05.777Z,2.85
2019-05-26T12:58:33.438Z,3.05
2019-05-26T13:01:00.900Z,3.50
2019-05-26T13:03:28.351Z,3.12
2019-05-26T13:05:55.824Z,2.90
2019-05-26T13:08:23.554Z,3.17
2019-05-26T13:10:51.222Z,2.87
2019-05-26T13:13:18.671Z,3.10
2019-05-26T13:15:46.339Z,3.20
2019-05-26T13:18:13.779Z,2.45
2019-05-26T13:20:41.261Z,3.02
2019-05-26T13:23:08.697Z,2.62
2019-05-26T13:25:36.367Z,2.33
2019-05-26T13:28:04.131Z,2.55
2019-05-26T13:30:31.844Z,2.72
2019-05-26T13:32:59.302Z,2.40
2019-05-26T13:35:26.832Z,2.95
2019-05-26T13:37:54.541Z,3.25
2019-05-26T13:40:22.016Z,3.00
2019-05-26T13:42:49.426Z,2.90
2019-05-26T13:45:22.900Z,3.08
2019-05-26T13:47:47.871Z,3.10
2019-05-26T13:50:15.407Z,2.90
2019-05-26T13:52:43.067Z,3.27
2019-05-26T13:55:12.578Z,2.85
2019-05-26T13:57:39.985Z,3.17
2019-05-26T14:00:07.752Z,2.72
2019-05-26T14:02:35.469Z,3.08
2019-05-26T14:05:05.084Z,3.40
2019-05-26T14:07:32.498Z,3.10
2019-05-26T14:10:00.439Z,2.95
2019-05-26T14:12:27.907Z,3.10
2019-05-26T14:14:55.322Z,3.62
2019-05-26T14:17:22.955Z,3.17
2019-05-26T14:19:50.371Z,2.80
2019-05-26T14:22:17.803Z,3.50
2019-05-26T14:24:53.816Z,3.30
2019-05-26T14:27:14.456Z,3.27
2019-05-26T14:29:41.909Z,3.35
2019-05-26T14:32:09.335Z,3.65
2019-05-26T14:34:42.366Z,3.40
2019-05-26T14:40:07.936Z,3.12
2019-05-26T14:42:50.125Z,3.05
2019-05-26T14:45:18.181Z,3.52
2019-05-26T14:47:53.676Z,3.65
2019-05-26T14:50:21.402Z,3.30
2019-05-26T14:52:49.381Z,3.05
2019-05-26T14:55:17.429Z,3.00
2019-05-26T14:57:45.376Z,3.33
2019-05-26T15:00:16.366Z,3.27
2019-05-26T15:02:46.942Z,2.60
2019-05-26T15:05:16.490Z,2.62
2019-05-26T15:07:44.482Z,2.12
2019-05-26T15:10:12.468Z,2.50
2019-05-26T15:12:40.131Z,2.67
2019-05-26T15:15:08.579Z,2.50
2019-05-26T15:17:36.414Z,2.52
2019-05-26T15:20:05.839Z,2.60
2019-05-26T15:22:34.009Z,2.87
2019-05-26T15:25:02.443Z,2.83
2019-05-26T15:27:30.093Z,2.70
2019-05-26T15:29:57.989Z,2.60
2019-05-26T15:32:25.685Z,2.47
2019-05-26T15:34:53.593Z,2.65
2019-05-26T15:37:21.218Z,2.60
2019-05-26T15:39:52.085Z,2.30
2019-05-26T15:42:19.889Z,2.33
2019-05-26T15:44:47.575Z,2.50
2019-05-26T15:47:15.537Z,2.55
2019-05-26T15:49:43.236Z,2.22
2019-05-26T15:52:10.870Z,2.50
2019-05-26T15:54:38.558Z,2.75
2019-05-26T15:57:10.925Z,2.77
2019-05-26T15:59:38.502Z,2.50
2019-05-26T16:02:15.966Z,2.72
2019-05-26T16:04:45.615Z,3.08
2019-05-26T16:10:10.397Z,2.90
2019-05-26T16:12:42.023Z,2.80
2019-05-26T16:15:12.852Z,3.08
2019-05-26T16:17:43.966Z,2.75
2019-05-26T16:20:13.230Z,3.08
2019-05-26T16:22:44.783Z,2.70
2019-05-26T16:25:12.848Z,3.08
2019-05-26T16:27:40.568Z,3.17
2019-05-26T16:30:09.661Z,2.65
2019-05-26T16:32:37.445Z,2.77
2019-05-26T16:37:42.996Z,2.83
2019-05-26T16:40:10.963Z,2.70
2019-05-26T16:42:41.117Z,2.75
2019-05-26T16:45:08.841Z,3.08
2019-05-26T16:47:39.407Z,3.10
2019-05-26T16:53:12.050Z,3.00
2019-05-26T16:55:39.956Z,2.98
2019-05-26T16:58:07.603Z,2.55
2019-05-26T17:00:35.298Z,2.70
2019-05-26T17:03:15.782Z,2.50
2019-05-26T17:05:47.915Z,2.35
2019-05-26T17:08:13.016Z,2.70
2019-05-26T17:10:40.648Z,2.27
2019-05-26T17:13:11.071Z,2.10
2019-05-26T17:15:38.482Z,2.20
2019-05-26T17:18:08.819Z,2.20
2019-05-26T17:20:38.184Z,2.55
2019-05-26T17:23:05.869Z,2.83
2019-05-26T17:25:33.771Z,2.15
2019-05-26T17:28:01.490Z,2.37
2019-05-26T17:30:28.949Z,2.30
2019-05-26T17:32:56.413Z,2.25
2019-05-26T17:35:28.747Z,2.17
2019-05-26T17:38:00.374Z,2.30
2019-05-26T17:40:28.054Z,2.87
2019-05-26T17:42:55.726Z,2.47
2019-05-26T17:45:23.566Z,2.60
2019-05-26T17:47:51.026Z,2.27
2019-05-26T17:50:18.597Z,2.40
2019-05-26T17:52:46.317Z,2.10
2019-05-26T17:55:13.741Z,2.30
2019-05-26T17:57:41.200Z,2.42
2019-05-26T18:00:10.103Z,2.30
2019-05-26T18:02:37.551Z,2.02
2019-05-26T18:05:05.018Z,2.33
2019-05-26T18:07:32.744Z,2.00
2019-05-26T18:10:00.203Z,2.00
2019-05-26T18:12:27.648Z,2.37
2019-05-26T18:14:55.314Z,2.60
2019-05-26T18:17:22.803Z,2.37
2019-05-26T18:19:50.467Z,2.40
2019-05-26T18:22:17.884Z,2.40
2019-05-26T18:24:54.324Z,2.42
2019-05-26T18:27:14.492Z,2.87
2019-05-26T18:29:41.931Z,2.40
2019-05-26T18:32:09.875Z,2.52
2019-05-26T18:34:37.632Z,3.77
2019-05-26T18:37:05.148Z,3.08
2019-05-26T18:39:32.561Z,2.83
2019-05-26T18:42:00.235Z,3.40
2019-05-26T18:44:27.692Z,3.30
2019-05-26T18:46:55.102Z,3.12
2019-05-26T18:49:22.811Z,2.90
2019-05-26T18:51:50.472Z,4.30
2019-05-26T18:54:17.894Z,5.50
2019-05-26T18:56:45.377Z,4.08
2019-05-26T18:59:12.842Z,4.83
2019-05-26T19:01:40.300Z,3.22
2019-05-26T19:04:07.753Z,3.25
2019-05-26T19:06:35.406Z,8.85
2019-05-26T19:09:04.712Z,12.35
2019-05-26T19:11:32.450Z,5.62
2019-05-26T19:13:59.861Z,4.33
2019-05-26T19:16:27.530Z,6.12
2019-05-26T19:18:54.950Z,5.40
2019-05-26T19:21:22.411Z,4.30
2019-05-26T19:23:49.821Z,8.53
2019-05-26T19:26:17.742Z,13.00
2019-05-26T19:28:46.159Z,10.85
2019-05-26T19:31:13.619Z,6.33
2019-05-26T19:33:41.280Z,5.53
2019-05-26T19:36:09.680Z,3.90
2019-05-26T19:38:37.383Z,3.67
2019-05-26T19:41:04.849Z,4.70
2019-05-26T19:43:32.291Z,6.25
2019-05-26T19:45:59.964Z,5.70
2019-05-26T19:48:36.701Z,4.62
2019-05-26T19:50:56.813Z,3.90
2019-05-26T19:53:24.345Z,3.83
2019-05-26T19:55:52.068Z,4.30
2019-05-26T19:58:19.632Z,3.62
2019-05-26T20:00:47.072Z,3.47
2019-05-26T20:03:14.531Z,3.40
2019-05-26T20:06:00.760Z,3.67
2019-05-26T20:08:28.225Z,3.90
2019-05-26T20:10:55.683Z,3.90
2019-05-26T20:13:24.642Z,5.40
2019-05-26T20:15:52.071Z,6.10
2019-05-26T20:18:19.818Z,11.43
2019-05-26T20:20:47.309Z,7.65
2019-05-26T20:23:14.881Z,10.53
2019-05-26T20:25:42.423Z,5.80
2019-05-26T20:28:09.842Z,5.12
2019-05-26T20:30:37.308Z,4.05
2019-05-26T20:33:04.723Z,3.92
2019-05-26T20:35:32.171Z,3.90
2019-05-26T20:37:59.594Z,4.08
2019-05-26T20:40:27.253Z,5.17
2019-05-26T20:42:54.931Z,4.95
2019-05-26T20:45:23.166Z,4.70
2019-05-26T20:47:50.628Z,3.62
2019-05-26T20:50:28.618Z,4.22
2019-05-26T20:52:47.812Z,4.42
2019-05-26T20:55:15.508Z,3.80
2019-05-26T20:57:43.187Z,3.85
2019-05-26T21:00:12.388Z,3.60
2019-05-26T21:02:40.644Z,4.25
2019-05-26T21:05:09.558Z,4.53
2019-05-26T21:07:36.948Z,4.50
2019-05-26T21:10:05.737Z,4.50
2019-05-26T21:12:33.250Z,4.87
2019-05-26T21:15:01.181Z,4.80
2019-05-26T21:17:28.803Z,5.67
2019-05-26T21:19:56.459Z,4.03
2019-05-26T21:22:23.923Z,4.00
2019-05-26T21:24:51.354Z,4.87
2019-05-26T21:27:19.027Z,4.42
2019-05-26T21:29:46.445Z,4.60
2019-05-26T21:32:13.874Z,4.50
2019-05-26T21:34:41.530Z,4.90
2019-05-26T21:37:09.202Z,4.75
2019-05-26T21:39:36.654Z,4.90
2019-05-26T21:42:04.181Z,4.55
2019-05-26T21:44:31.595Z,4.65
2019-05-26T21:46:59.058Z,4.85
2019-05-26T21:49:26.477Z,5.00
2019-05-26T21:51:54.143Z,4.72
2019-05-26T21:54:21.807Z,4.90
2019-05-26T21:56:49.225Z,4.80
2019-05-26T21:59:16.890Z,5.08
2019-05-26T22:01:44.572Z,5.30
2019-05-26T22:04:12.236Z,5.42
2019-05-26T22:06:39.687Z,5.42
2019-05-26T22:09:07.473Z,5.03
2019-05-26T22:11:34.897Z,5.40
2019-05-26T22:14:02.566Z,5.20
2019-05-26T22:16:30.263Z,5.20
2019-05-26T22:19:00.136Z,5.17
2019-05-26T22:21:27.355Z,5.25
2019-05-26T22:23:55.502Z,5.15
2019-05-26T22:26:23.212Z,5.15
2019-05-26T22:28:50.936Z,5.42
2019-05-26T22:31:18.383Z,5.37
2019-05-26T22:33:45.801Z,5.53
2019-05-26T22:36:13.218Z,5.45
2019-05-26T22:38:40.647Z,5.95
2019-05-26T22:41:08.308Z,6.62
2019-05-26T22:43:35.765Z,6.15
2019-05-26T22:46:03.174Z,6.20
2019-05-26T22:48:30.885Z,6.17
2019-05-26T22:50:58.540Z,6.15
2019-05-26T22:53:25.969Z,7.05
2019-05-26T22:55:53.630Z,7.28
2019-05-26T22:58:21.055Z,6.65
2019-05-26T23:00:48.714Z,6.05
2019-05-26T23:03:16.385Z,6.35
2019-05-26T23:05:43.843Z,7.10
2019-05-26T23:08:11.267Z,6.35
2019-05-26T23:10:39.398Z,6.60
2019-05-26T23:13:06.821Z,6.67
2019-05-26T23:15:34.238Z,6.70
2019-05-26T23:18:01.661Z,6.35
2019-05-26T23:20:29.081Z,6.80
2019-05-26T23:22:56.751Z,6.40
2019-05-26T23:25:24.162Z,6.58
2019-05-26T23:27:51.831Z,6.30
2019-05-26T23:30:19.532Z,6.65
2019-05-26T23:32:46.983Z,6.78
2019-05-26T23:35:14.699Z,6.33
2019-05-26T23:37:42.354Z,6.08
2019-05-26T23:40:09.811Z,6.70
2019-05-26T23:42:37.258Z,5.58
2019-05-26T23:45:07.650Z,6.60
2019-05-26T23:47:35.314Z,6.30
2019-05-26T23:50:04.986Z,6.65
2019-05-26T23:52:32.408Z,5.78
2019-05-26T23:55:00.077Z,6.08
2019-05-26T23:57:27.733Z,5.83
2019-05-26T23:59:55.158Z,6.10
